createdAt,value
2019-01-21T00:01:08.426Z,10.43
2019-01-21T00:03:38.066Z,7.27
2019-01-21T00:06:07.717Z,8.17
2019-01-21T00:08:37.295Z,7.53
2019-01-21T00:11:06.946Z,5.90
2019-01-21T00:13:36.261Z,8.80
2019-01-21T00:16:05.657Z,6.67
2019-01-21T00:18:35.020Z,8.80
2019-01-21T00:21:04.442Z,8.83
2019-01-21T00:23:34.105Z,4.33
2019-01-21T00:26:03.757Z,7.57
2019-01-21T00:28:33.430Z,9.23
2019-01-21T00:31:03.108Z,7.17
2019-01-21T00:33:33.052Z,8.60
2019-01-21T00:36:02.866Z,7.20
2019-01-21T00:38:33.055Z,6.63
2019-01-21T00:41:02.968Z,8.73
2019-01-21T00:43:33.190Z,8.10
2019-01-21T00:46:03.208Z,9.17
2019-01-21T00:48:33.019Z,8.43
2019-01-21T00:51:02.870Z,9.17
2019-01-21T00:53:33.170Z,9.27
2019-01-21T00:56:03.496Z,5.10
2019-01-21T00:58:33.605Z,11.80
2019-01-21T01:01:03.839Z,5.30
2019-01-21T01:03:33.608Z,7.40
2019-01-21T01:06:03.865Z,8.03
2019-01-21T01:08:33.875Z,8.80
2019-01-21T01:11:03.996Z,8.50
2019-01-21T01:13:34.432Z,8.73
2019-01-21T01:16:05.161Z,8.83
2019-01-21T01:18:35.076Z,8.60
2019-01-21T01:21:05.499Z,11.13
2019-01-21T01:23:35.422Z,6.80
2019-01-21T01:26:07.094Z,5.87
2019-01-21T01:28:38.029Z,7.40
2019-01-21T01:31:07.845Z,8.53
2019-01-21T01:33:38.767Z,9.87
2019-01-21T01:36:08.607Z,7.15
2019-01-21T01:38:39.310Z,5.90
2019-01-21T01:41:09.021Z,7.10
2019-01-21T01:43:39.039Z,6.40
2019-01-21T01:46:08.852Z,8.67
2019-01-21T01:48:38.761Z,5.77
2019-01-21T01:51:08.896Z,7.22
2019-01-21T01:53:39.216Z,8.43
2019-01-21T01:56:09.322Z,6.67
2019-01-21T01:58:38.990Z,5.70
2019-01-21T02:01:08.719Z,9.40
2019-01-21T02:03:38.561Z,9.20
2019-01-21T02:06:08.631Z,6.33
2019-01-21T02:08:40.547Z,5.97
2019-01-21T02:11:10.551Z,7.67
2019-01-21T02:13:40.880Z,8.30
2019-01-21T02:16:11.107Z,6.93
2019-01-21T02:18:41.220Z,9.30
2019-01-21T02:21:12.568Z,8.13
2019-01-21T02:23:44.233Z,5.35
2019-01-21T02:26:21.844Z,8.97
2019-01-21T02:28:57.280Z,7.50
2019-01-21T02:32:19.915Z,6.73
2019-01-21T02:35:16.205Z,6.10
2019-01-21T02:38:41.769Z,5.30
2019-01-21T02:41:28.266Z,6.17
2019-01-21T02:44:11.733Z,6.03
2019-01-21T02:47:12.110Z,7.00
2019-01-21T02:50:36.831Z,6.10
2019-01-21T02:53:37.160Z,7.22
2019-01-21T02:56:38.486Z,6.07
2019-01-21T02:59:37.098Z,5.90
2019-01-21T03:02:24.400Z,5.95
2019-01-21T03:05:16.596Z,3.57
2019-01-21T03:08:26.314Z,5.65
2019-01-21T03:11:40.260Z,8.60
2019-01-21T03:14:24.427Z,5.72
2019-01-21T03:17:25.026Z,7.62
2019-01-21T03:20:19.975Z,9.53
2019-01-21T03:23:19.505Z,8.53
2019-01-21T03:26:17.625Z,6.17
2019-01-21T03:29:26.866Z,11.22
2019-01-21T03:32:48.607Z,6.23
2019-01-21T03:35:55.118Z,4.97
2019-01-21T03:38:52.011Z,9.40
2019-01-21T03:41:49.786Z,7.60
2019-01-21T03:44:52.772Z,4.47
2019-01-21T03:47:44.780Z,5.23
2019-01-21T03:50:51.282Z,5.45
2019-01-21T03:53:51.818Z,6.47
2019-01-21T03:57:08.220Z,7.85
2019-01-21T04:00:27.893Z,6.05
2019-01-21T04:03:59.765Z,8.25
2019-01-21T04:06:57.166Z,5.60
2019-01-21T04:10:10.723Z,9.65
2019-01-21T04:13:17.235Z,10.68
2019-01-21T04:16:14.395Z,8.80
2019-01-21T04:19:19.436Z,7.25
2019-01-21T04:22:29.924Z,9.08
2019-01-21T04:25:29.193Z,6.72
2019-01-21T04:28:26.863Z,7.30
2019-01-21T04:31:58.934Z,12.05
2019-01-21T04:35:17.287Z,4.45
2019-01-21T04:38:40.344Z,8.55
2019-01-21T04:41:23.415Z,6.28
2019-01-21T04:43:50.924Z,5.25
2019-01-21T04:47:04.469Z,7.15
2019-01-21T04:50:09.618Z,9.18
2019-01-21T04:52:53.619Z,6.00
2019-01-21T04:55:49.178Z,4.50
2019-01-21T04:59:11.883Z,5.12
2019-01-21T05:02:24.376Z,6.30
2019-01-21T05:05:28.119Z,7.35
2019-01-21T05:08:34.369Z,12.55
2019-01-21T05:12:09.218Z,7.58
2019-01-21T05:15:05.303Z,9.20
2019-01-21T05:18:14.778Z,6.97
2019-01-21T05:21:24.049Z,5.92
2019-01-21T05:24:36.547Z,5.28
2019-01-21T05:28:14.536Z,5.28
2019-01-21T05:31:03.204Z,5.67
2019-01-21T05:33:55.638Z,3.87
2019-01-21T05:36:52.388Z,6.05
2019-01-21T05:39:48.836Z,8.00
2019-01-21T05:43:16.683Z,8.88
2019-01-21T05:46:33.186Z,8.10
2019-01-21T05:49:48.660Z,5.37
2019-01-21T05:52:53.442Z,5.90
2019-01-21T05:55:48.491Z,5.87
2019-01-21T05:58:53.783Z,4.30
2019-01-21T06:02:03.825Z,6.42
2019-01-21T06:05:07.278Z,7.78
2019-01-21T06:08:12.616Z,5.53
2019-01-21T06:11:10.869Z,6.90
2019-01-21T06:14:24.914Z,6.58
2019-01-21T06:17:22.827Z,5.47
2019-01-21T06:20:23.784Z,6.33
2019-01-21T06:23:40.346Z,7.30
2019-01-21T06:26:41.854Z,6.05
2019-01-21T06:29:42.883Z,7.78
2019-01-21T06:32:52.199Z,5.62
2019-01-21T06:35:43.232Z,6.15
2019-01-21T06:39:02.610Z,6.28
2019-01-21T06:42:21.981Z,6.30
2019-01-21T06:45:25.431Z,5.65
2019-01-21T06:48:38.039Z,6.35
2019-01-21T06:52:00.693Z,8.83
2019-01-21T06:55:18.128Z,4.53
2019-01-21T06:58:43.591Z,7.25
2019-01-21T07:01:36.864Z,4.75
2019-01-21T07:04:36.767Z,5.60
2019-01-21T07:07:28.614Z,8.40
2019-01-21T07:10:40.631Z,3.72
2019-01-21T07:13:43.418Z,5.05
2019-01-21T07:16:34.157Z,9.25
2019-01-21T07:19:34.686Z,12.80
2019-01-21T07:22:28.289Z,4.70
2019-01-21T07:25:35.045Z,5.10
2019-01-21T07:28:20.015Z,9.05
2019-01-21T07:31:39.598Z,5.10
2019-01-21T07:34:48.420Z,5.87
2019-01-21T07:38:10.261Z,12.10
2019-01-21T07:41:02.389Z,5.62
2019-01-21T07:44:17.951Z,6.55
2019-01-21T07:47:32.640Z,9.55
2019-01-21T07:50:48.053Z,6.85
2019-01-21T07:53:48.598Z,6.12
2019-01-21T07:56:48.759Z,7.47
2019-01-21T07:59:53.768Z,6.58
2019-01-21T08:03:07.382Z,5.80
2019-01-21T08:06:07.682Z,9.03
2019-01-21T08:09:13.877Z,8.38
2019-01-21T08:11:57.273Z,6.80
2019-01-21T08:15:00.780Z,10.03
2019-01-21T08:18:14.117Z,13.30
2019-01-21T08:21:05.301Z,9.65
2019-01-21T08:24:01.486Z,5.12
2019-01-21T08:26:58.510Z,8.95
2019-01-21T08:29:48.527Z,11.53
2019-01-21T08:32:45.214Z,14.30
2019-01-21T08:35:52.585Z,9.05
2019-01-21T08:38:57.561Z,9.33
2019-01-21T08:42:00.334Z,7.75
2019-01-21T08:45:16.988Z,9.65
2019-01-21T08:48:38.564Z,11.60
2019-01-21T08:51:39.747Z,6.92
2019-01-21T08:54:44.671Z,9.28
2019-01-21T08:57:48.366Z,7.65
2019-01-21T09:00:45.395Z,11.78
2019-01-21T09:04:07.885Z,5.72
2019-01-21T09:07:00.644Z,7.03
2019-01-21T09:09:46.415Z,15.13
2019-01-21T09:12:55.663Z,9.40
2019-01-21T09:16:03.041Z,8.00
2019-01-21T09:19:19.853Z,6.03
2019-01-21T09:22:39.038Z,11.18
2019-01-21T09:25:45.969Z,14.90
2019-01-21T09:28:56.599Z,10.67
2019-01-21T09:32:22.411Z,11.43
2019-01-21T09:35:33.072Z,14.50
2019-01-21T09:38:42.487Z,14.73
2019-01-21T09:42:01.325Z,9.57
2019-01-21T09:44:52.931Z,15.10
2019-01-21T09:47:20.628Z,13.27
2019-01-21T09:49:50.029Z,10.63
2019-01-21T09:52:20.754Z,5.93
2019-01-21T09:54:50.663Z,12.30
2019-01-21T09:57:25.916Z,17.27
2019-01-21T09:59:59.816Z,13.73
2019-01-21T10:02:38.159Z,9.23
2019-01-21T10:05:11.786Z,13.07
2019-01-21T10:08:43.360Z,11.40
2019-01-21T10:11:52.602Z,12.17
2019-01-21T10:15:12.223Z,10.63
2019-01-21T10:18:14.315Z,16.50
2019-01-21T10:21:13.017Z,15.93
2019-01-21T10:24:08.936Z,11.53
2019-01-21T10:27:18.362Z,15.43
2019-01-21T10:30:27.634Z,13.47
2019-01-21T10:33:40.862Z,11.93
2019-01-21T10:36:50.294Z,11.03
2019-01-21T10:40:07.933Z,11.13
2019-01-21T10:43:07.027Z,14.27
2019-01-21T10:46:04.903Z,16.97
2019-01-21T10:49:05.225Z,13.37
2019-01-21T10:52:31.255Z,13.43
2019-01-21T10:55:41.608Z,11.77
2019-01-21T10:58:36.012Z,13.53
2019-01-21T11:01:41.486Z,13.67
2019-01-21T11:04:40.056Z,10.90
2019-01-21T11:07:53.479Z,13.30
2019-01-21T11:10:54.223Z,17.23
2019-01-21T11:14:01.615Z,11.77
2019-01-21T11:17:04.705Z,14.87
2019-01-21T11:20:33.395Z,11.27
2019-01-21T11:23:50.419Z,11.60
2019-01-21T11:27:18.903Z,14.10
2019-01-21T11:30:17.688Z,17.37
2019-01-21T11:33:19.053Z,13.40
2019-01-21T11:36:26.756Z,10.83
2019-01-21T11:39:39.065Z,10.13
2019-01-21T11:43:11.332Z,9.40
2019-01-21T11:46:30.708Z,15.93
2019-01-21T11:49:40.972Z,11.03
2019-01-21T11:52:27.034Z,14.07
2019-01-21T11:55:59.039Z,10.73
2019-01-21T11:59:06.660Z,10.87
2019-01-21T12:02:20.272Z,12.60
2019-01-21T12:05:11.926Z,7.27
2019-01-21T12:07:59.247Z,9.80
2019-01-21T12:11:09.212Z,9.57
2019-01-21T12:14:05.717Z,15.07
2019-01-21T12:17:11.983Z,12.37
2019-01-21T12:20:17.405Z,12.97
2019-01-21T12:23:45.916Z,11.83
2019-01-21T12:26:59.552Z,12.13
2019-01-21T12:29:53.432Z,10.73
2019-01-21T12:32:55.091Z,8.60
2019-01-21T12:35:39.768Z,12.23
2019-01-21T12:38:46.097Z,11.07
2019-01-21T12:41:57.355Z,11.60
2019-01-21T12:45:13.196Z,12.43
2019-01-21T12:48:04.417Z,10.13
2019-01-21T12:51:06.132Z,8.07
2019-01-21T12:54:09.647Z,9.13
2019-01-21T12:57:15.886Z,9.90
2019-01-21T13:00:20.262Z,9.97
2019-01-21T13:03:12.071Z,7.90
2019-01-21T13:06:11.631Z,5.00
2019-01-21T13:09:16.850Z,11.00
2019-01-21T13:12:16.045Z,9.60
2019-01-21T13:15:02.970Z,11.03
2019-01-21T13:18:00.565Z,5.87
2019-01-21T13:21:10.788Z,13.40
2019-01-21T13:24:12.368Z,8.30
2019-01-21T13:27:31.244Z,8.37
2019-01-21T13:30:24.942Z,10.20
2019-01-21T13:33:30.522Z,7.53
2019-01-21T13:36:34.438Z,6.67
2019-01-21T13:39:43.951Z,11.33
2019-01-21T13:42:22.978Z,10.23
2019-01-21T13:45:25.488Z,11.13
2019-01-21T13:48:50.909Z,11.47
2019-01-21T13:51:39.562Z,9.57
2019-01-21T13:55:06.305Z,9.63
2019-01-21T13:58:11.964Z,10.63
2019-01-21T14:00:54.543Z,9.10
2019-01-21T14:04:04.453Z,9.30
2019-01-21T14:07:10.899Z,9.13
2019-01-21T14:10:27.200Z,5.70
2019-01-21T14:13:11.588Z,9.87
2019-01-21T14:15:58.878Z,11.50
2019-01-21T14:18:41.390Z,6.40
2019-01-21T14:21:48.983Z,8.17
2019-01-21T14:25:07.648Z,6.60
2019-01-21T14:28:19.157Z,7.13
2019-01-21T14:31:32.888Z,11.10
2019-01-21T14:34:48.689Z,7.37
2019-01-21T14:38:11.542Z,8.53
2019-01-21T14:41:22.857Z,11.70
2019-01-21T14:44:41.061Z,8.70
2019-01-21T14:48:00.692Z,18.27
2019-01-21T14:51:20.216Z,8.73
2019-01-21T14:54:16.945Z,15.07
2019-01-21T14:57:33.661Z,8.27
2019-01-21T15:00:34.440Z,13.40
2019-01-21T15:03:47.116Z,14.57
2019-01-21T15:06:47.134Z,10.03
2019-01-21T15:09:53.343Z,9.80
2019-01-21T15:13:15.871Z,10.63
2019-01-21T15:16:22.389Z,8.67
2019-01-21T15:19:12.606Z,10.63
2019-01-21T15:22:35.585Z,12.43
2019-01-21T15:25:46.413Z,8.57
2019-01-21T15:28:56.374Z,13.13
2019-01-21T15:31:54.459Z,13.43
2019-01-21T15:34:53.491Z,12.67
2019-01-21T15:37:55.319Z,8.60
2019-01-21T15:41:04.570Z,14.80
2019-01-21T15:43:46.222Z,12.47
2019-01-21T15:46:36.472Z,13.53
2019-01-21T15:49:38.706Z,9.50
2019-01-21T15:52:23.151Z,11.50
2019-01-21T15:55:11.496Z,11.43
2019-01-21T15:58:09.087Z,11.70
2019-01-21T16:01:31.710Z,12.23
2019-01-21T16:04:38.087Z,10.73
2019-01-21T16:07:40.956Z,15.07
2019-01-21T16:10:49.219Z,14.93
2019-01-21T16:13:42.670Z,8.70
2019-01-21T16:17:02.394Z,11.67
2019-01-21T16:19:53.868Z,12.07
2019-01-21T16:23:02.881Z,15.03
2019-01-21T16:25:58.188Z,14.23
2019-01-21T16:29:17.785Z,11.97
2019-01-21T16:32:30.815Z,14.50
2019-01-21T16:35:21.567Z,15.10
2019-01-21T16:38:41.235Z,13.43
2019-01-21T16:41:46.146Z,13.00
2019-01-21T16:44:15.616Z,19.17
2019-01-21T16:46:45.889Z,15.83
2019-01-21T16:49:15.739Z,16.40
2019-01-21T16:51:45.174Z,12.57
2019-01-21T16:54:14.614Z,11.80
2019-01-21T16:56:44.077Z,14.27
2019-01-21T16:59:13.461Z,14.90
2019-01-21T17:01:42.896Z,15.90
2019-01-21T17:04:12.259Z,13.83
2019-01-21T17:06:41.715Z,12.13
2019-01-21T17:09:12.015Z,15.60
2019-01-21T17:11:41.467Z,16.10
2019-01-21T17:14:12.485Z,12.90
2019-01-21T17:16:41.896Z,14.17
2019-01-21T17:19:11.255Z,14.50
2019-01-21T17:21:40.662Z,14.77
2019-01-21T17:24:10.137Z,15.13
2019-01-21T17:26:39.562Z,16.53
2019-01-21T17:29:08.926Z,15.13
2019-01-21T17:31:38.612Z,20.93
2019-01-21T17:34:08.255Z,14.77
2019-01-21T17:36:38.016Z,19.00
2019-01-21T17:39:09.320Z,18.07
2019-01-21T17:41:38.973Z,15.10
2019-01-21T17:44:08.576Z,15.57
2019-01-21T17:46:38.188Z,19.43
2019-01-21T17:49:07.775Z,16.10
2019-01-21T17:51:37.441Z,11.60
2019-01-21T17:54:07.103Z,18.53
2019-01-21T17:56:36.489Z,15.27
2019-01-21T17:59:06.316Z,14.97
2019-01-21T18:01:39.382Z,14.50
2019-01-21T18:04:08.579Z,19.70
2019-01-21T18:06:37.951Z,16.37
2019-01-21T18:09:09.895Z,13.63
2019-01-21T18:11:41.472Z,10.67
2019-01-21T18:14:10.635Z,14.27
2019-01-21T18:16:40.021Z,17.60
2019-01-21T18:19:09.465Z,14.20
2019-01-21T18:21:40.313Z,12.70
2019-01-21T18:24:10.111Z,10.77
2019-01-21T18:26:39.568Z,16.63
2019-01-21T18:29:09.133Z,9.20
2019-01-21T18:31:38.945Z,17.93
2019-01-21T18:34:08.619Z,11.90
2019-01-21T18:36:38.303Z,22.13
2019-01-21T18:39:11.740Z,20.20
2019-01-21T18:41:41.303Z,12.10
2019-01-21T18:44:10.739Z,13.20
2019-01-21T18:46:40.148Z,18.70
2019-01-21T18:49:09.594Z,12.50
2019-01-21T18:51:39.074Z,13.60
2019-01-21T18:54:08.757Z,14.60
2019-01-21T18:56:38.299Z,18.23
2019-01-21T18:59:07.980Z,11.30
2019-01-21T19:01:37.649Z,14.07
2019-01-21T19:04:07.336Z,15.70
2019-01-21T19:06:36.943Z,17.00
2019-01-21T19:09:09.063Z,13.10
2019-01-21T19:11:38.620Z,15.50
2019-01-21T19:14:08.261Z,13.40
2019-01-21T19:16:37.860Z,12.03
2019-01-21T19:19:07.279Z,13.17
2019-01-21T19:21:36.665Z,13.97
2019-01-21T19:24:06.631Z,10.30
2019-01-21T19:26:36.148Z,11.67
2019-01-21T19:29:05.846Z,13.20
2019-01-21T19:31:35.499Z,10.97
2019-01-21T19:34:05.445Z,12.00
2019-01-21T19:36:35.098Z,19.47
2019-01-21T19:39:06.530Z,9.17
2019-01-21T19:41:36.170Z,14.20
2019-01-21T19:44:05.861Z,15.17
2019-01-21T19:46:35.505Z,19.97
2019-01-21T19:49:05.260Z,15.07
2019-01-21T19:51:34.693Z,17.00
2019-01-21T19:54:04.364Z,16.47
2019-01-21T19:56:34.231Z,14.53
2019-01-21T19:59:03.919Z,17.30
2019-01-21T20:01:33.593Z,10.97
2019-01-21T20:04:02.971Z,12.67
2019-01-21T20:06:32.444Z,11.77
2019-01-21T20:09:02.085Z,14.90
2019-01-21T20:11:34.891Z,14.53
2019-01-21T20:14:03.119Z,11.97
2019-01-21T20:16:32.767Z,23.07
2019-01-21T20:19:02.337Z,17.77
2019-01-21T20:21:31.991Z,14.07
2019-01-21T20:24:01.647Z,18.50
2019-01-21T20:26:31.287Z,15.30
2019-01-21T20:29:00.984Z,13.17
2019-01-21T20:31:30.612Z,19.13
2019-01-21T20:34:00.193Z,18.20
2019-01-21T20:36:29.843Z,10.57
2019-01-21T20:38:59.397Z,8.73
2019-01-21T20:41:28.982Z,12.30
2019-01-21T20:43:58.589Z,17.67
2019-01-21T20:46:28.096Z,17.17
2019-01-21T20:48:57.725Z,20.37
2019-01-21T20:51:27.127Z,18.50
2019-01-21T20:53:56.509Z,13.90
2019-01-21T20:56:25.922Z,17.07
2019-01-21T20:58:55.309Z,20.63
2019-01-21T21:01:24.759Z,21.73
2019-01-21T21:03:54.126Z,10.30
2019-01-21T21:06:23.520Z,13.87
2019-01-21T21:08:52.906Z,22.87
2019-01-21T21:11:22.315Z,15.30
2019-01-21T21:13:52.156Z,14.33
2019-01-21T21:16:21.913Z,14.33
2019-01-21T21:18:51.576Z,13.10
2019-01-21T21:21:21.025Z,10.90
2019-01-21T21:23:50.473Z,9.90
2019-01-21T21:26:19.885Z,9.17
2019-01-21T21:28:49.284Z,15.60
2019-01-21T21:31:19.092Z,12.30
2019-01-21T21:33:48.496Z,15.37
2019-01-21T21:36:18.024Z,15.43
2019-01-21T21:38:47.880Z,11.50
2019-01-21T21:41:17.491Z,13.93
2019-01-21T21:43:47.120Z,13.93
2019-01-21T21:46:16.718Z,10.90
2019-01-21T21:48:47.114Z,16.43
2019-01-21T21:51:17.107Z,12.07
2019-01-21T21:53:46.695Z,10.00
2019-01-21T21:56:16.570Z,15.40
2019-01-21T21:58:46.643Z,10.50
2019-01-21T22:01:16.382Z,12.93
2019-01-21T22:03:49.149Z,9.37
2019-01-21T22:06:18.990Z,8.78
2019-01-21T22:08:48.930Z,9.68
2019-01-21T22:11:18.613Z,17.82
2019-01-21T22:13:48.639Z,16.12
2019-01-21T22:16:18.395Z,13.20
2019-01-21T22:18:48.131Z,14.98
2019-01-21T22:21:17.750Z,16.48
2019-01-21T22:23:47.442Z,9.95
2019-01-21T22:26:17.176Z,12.73
2019-01-21T22:28:47.458Z,6.47
2019-01-21T22:31:17.055Z,8.60
2019-01-21T22:33:46.990Z,12.25
2019-01-21T22:36:16.715Z,7.70
2019-01-21T22:38:46.523Z,19.93
2019-01-21T22:41:16.258Z,8.17
2019-01-21T22:43:46.151Z,10.40
2019-01-21T22:46:15.874Z,8.40
2019-01-21T22:48:45.651Z,20.17
2019-01-21T22:51:15.311Z,15.23
2019-01-21T22:53:45.190Z,19.60
2019-01-21T22:56:14.797Z,9.10
2019-01-21T22:58:44.575Z,9.83
2019-01-21T23:01:33.644Z,8.47
2019-01-21T23:04:03.347Z,11.43
2019-01-21T23:06:33.007Z,11.27
2019-01-21T23:09:03.681Z,10.83
2019-01-21T23:11:33.501Z,18.30
2019-01-21T23:14:03.554Z,13.40
2019-01-21T23:16:33.290Z,16.20
2019-01-21T23:19:03.156Z,15.37
2019-01-21T23:21:32.944Z,21.70
2019-01-21T23:24:02.675Z,11.30
2019-01-21T23:26:32.857Z,16.13
2019-01-21T23:29:02.735Z,13.83
2019-01-21T23:31:32.368Z,14.90
2019-01-21T23:34:01.997Z,12.43
2019-01-21T23:36:31.438Z,11.00
2019-01-21T23:39:01.406Z,15.93
2019-01-21T23:41:30.982Z,14.53
2019-01-21T23:44:00.382Z,17.63
2019-01-21T23:46:29.731Z,17.10
2019-01-21T23:48:59.199Z,14.13
2019-01-21T23:51:28.567Z,11.37
2019-01-21T23:53:57.971Z,12.60
2019-01-21T23:56:27.668Z,9.07
2019-01-21T23:58:57.243Z,8.83
